createdAt,value
2017-12-28T00:00:43.173Z,94399.70
2017-12-28T00:07:02.577Z,94393.29
2017-12-28T00:09:31.220Z,94390.42
2017-12-28T00:12:00.106Z,94391.87
2017-12-28T00:14:28.798Z,94374.88
2017-12-28T00:16:56.789Z,94363.58
2017-12-28T00:19:25.009Z,94377.45
2017-12-28T00:21:53.136Z,94389.75
2017-12-28T01:06:50.030Z,94331.53
2017-12-28T01:09:19.278Z,94329.80
2017-12-28T01:11:49.493Z,94297.72
2017-12-28T01:14:17.274Z,94319.58
2017-12-28T01:16:45.346Z,94315.42
2017-12-28T01:19:14.178Z,94326.48
2017-12-28T01:21:42.129Z,94314.14
2017-12-28T01:24:10.882Z,94307.14
2017-12-28T01:26:40.320Z,94318.02
2017-12-28T01:29:08.499Z,94317.85
2017-12-28T01:31:36.736Z,94312.64
2017-12-28T01:34:05.128Z,94302.98
2017-12-28T01:36:38.183Z,94302.04
2017-12-28T01:39:06.918Z,94279.90
2017-12-28T01:42:24.070Z,94304.19
2017-12-28T01:44:56.880Z,94308.42
2017-12-28T01:50:14.705Z,94291.34
2017-12-28T01:52:45.822Z,94287.19
2017-12-28T01:55:15.203Z,94276.48
2017-12-28T01:57:49.510Z,94268.42
2017-12-28T02:00:27.726Z,94254.98
2017-12-28T02:06:29.430Z,94244.13
2017-12-28T02:08:57.017Z,94246.91
2017-12-28T02:11:24.690Z,94242.64
2017-12-28T02:13:52.693Z,94243.83
2017-12-28T02:16:25.753Z,94228.58
2017-12-28T02:18:53.801Z,94221.83
2017-12-28T02:21:21.478Z,94223.81
2017-12-28T02:23:49.722Z,94199.30
2017-12-28T02:26:19.307Z,94199.97
2017-12-28T02:29:18.411Z,94200.27
2017-12-28T02:34:35.795Z,94216.13
2017-12-28T02:37:03.485Z,94216.90
2017-12-28T02:39:52.841Z,94203.92
2017-12-28T02:42:22.323Z,94202.75
2017-12-28T02:44:50.036Z,94185.41
2017-12-28T02:47:18.100Z,94184.25
2017-12-28T02:49:45.688Z,94170.30
2017-12-28T02:52:13.823Z,94178.55
2017-12-28T02:54:41.389Z,94162.05
2017-12-28T02:57:09.014Z,94170.80
2017-12-28T02:59:37.463Z,94167.92
2017-12-28T03:02:05.176Z,94167.87
2017-12-28T03:04:32.962Z,94182.03
2017-12-28T03:07:00.659Z,94169.33
2017-12-28T03:09:28.404Z,94162.58
2017-12-28T03:11:56.215Z,94154.44
2017-12-28T03:14:25.370Z,94146.73
2017-12-28T03:16:54.832Z,94148.52
2017-12-28T03:19:22.552Z,94162.55
2017-12-28T03:21:56.593Z,94156.68
2017-12-28T03:30:39.102Z,94143.92
2017-12-28T03:33:07.610Z,94131.73
2017-12-28T03:35:35.491Z,94141.76
2017-12-28T03:38:03.506Z,94150.99
2017-12-28T03:40:31.071Z,94140.64
2017-12-28T03:42:58.701Z,94144.28
2017-12-28T03:45:26.967Z,94154.61
2017-12-28T03:47:54.776Z,94165.42
2017-12-28T03:50:22.467Z,94179.81
2017-12-28T03:52:50.315Z,94165.62
2017-12-28T03:55:17.921Z,94159.48
2017-12-28T03:57:46.238Z,94151.03
2017-12-28T04:00:13.998Z,94147.27
2017-12-28T04:02:41.612Z,94138.23
2017-12-28T04:05:09.285Z,94134.45
2017-12-28T04:07:37.841Z,94137.34
2017-12-28T04:10:05.446Z,94139.77
2017-12-28T04:12:33.862Z,94134.16
2017-12-28T04:15:01.533Z,94122.28
2017-12-28T04:17:29.228Z,94110.39
2017-12-28T04:19:56.868Z,94111.02
2017-12-28T04:22:24.477Z,94107.90
2017-12-28T04:24:52.554Z,94104.02
2017-12-28T04:27:20.191Z,94095.52
2017-12-28T04:29:47.901Z,94106.98
2017-12-28T04:32:15.543Z,94109.03
2017-12-28T04:34:43.222Z,94091.03
2017-12-28T04:37:11.608Z,94101.34
2017-12-28T04:39:39.295Z,94094.98
2017-12-28T04:42:07.112Z,94096.15
2017-12-28T04:44:34.718Z,94082.70
2017-12-28T04:47:02.361Z,94094.99
2017-12-28T04:49:30.017Z,94089.30
2017-12-28T04:51:57.596Z,94087.12
2017-12-28T04:54:25.374Z,94087.56
2017-12-28T04:56:53.236Z,94093.14
2017-12-28T04:59:20.893Z,94097.95
2017-12-28T05:01:49.382Z,94119.99
2017-12-28T05:04:17.003Z,94120.59
2017-12-28T05:06:45.378Z,94129.09
2017-12-28T05:09:13.001Z,94116.87
2017-12-28T05:11:40.613Z,94132.52
2017-12-28T05:14:08.861Z,94131.28
2017-12-28T05:16:36.650Z,94120.95
2017-12-28T05:19:04.494Z,94067.72
2017-12-28T05:21:32.159Z,94112.27
2017-12-28T05:24:00.938Z,94089.97
2017-12-28T05:26:28.539Z,94103.77
2017-12-28T05:28:56.467Z,94079.39
2017-12-28T05:31:24.336Z,94077.38
2017-12-28T05:33:51.918Z,94095.78
2017-12-28T05:36:19.480Z,94081.86
2017-12-28T05:38:48.013Z,94069.02
2017-12-28T05:41:15.820Z,94072.48
2017-12-28T05:43:43.468Z,94084.59
2017-12-28T05:46:11.139Z,94085.81
2017-12-28T05:48:38.825Z,94083.62
2017-12-28T05:51:06.467Z,94071.20
2017-12-28T05:53:34.411Z,94084.09
2017-12-28T05:56:02.083Z,94090.66
2017-12-28T05:58:29.655Z,94113.21
2017-12-28T06:00:57.310Z,94072.19
2017-12-28T06:03:25.212Z,94118.45
2017-12-28T06:05:52.879Z,94048.25
2017-12-28T06:08:20.626Z,94047.53
2017-12-28T06:10:48.274Z,94058.66
2017-12-28T06:13:25.434Z,94053.59
2017-12-28T06:16:00.622Z,94073.83
2017-12-28T06:18:28.325Z,94076.17
2017-12-28T06:20:55.962Z,94077.09
2017-12-28T06:23:23.521Z,94080.44
2017-12-28T06:25:51.115Z,94085.15
2017-12-28T06:28:18.795Z,94086.58
2017-12-28T06:30:46.514Z,94071.77
2017-12-28T06:33:14.105Z,94066.25
2017-12-28T06:35:41.875Z,94078.15
2017-12-28T06:38:09.577Z,94065.63
2017-12-28T06:40:37.178Z,94081.34
2017-12-28T06:43:04.810Z,94069.41
2017-12-28T06:45:33.306Z,94083.58
2017-12-28T06:48:01.088Z,94087.81
2017-12-28T06:50:28.883Z,94081.91
2017-12-28T06:52:56.590Z,94080.34
2017-12-28T06:55:24.236Z,94091.12
2017-12-28T06:57:51.982Z,94088.22
2017-12-28T07:00:19.944Z,94079.35
2017-12-28T07:02:55.537Z,94073.17
2017-12-28T07:05:23.341Z,94074.33
2017-12-28T07:07:50.990Z,94078.22
2017-12-28T07:10:18.920Z,94066.91
2017-12-28T07:12:46.810Z,94069.14
2017-12-28T07:15:15.420Z,94064.71
2017-12-28T07:17:43.476Z,94068.80
2017-12-28T07:20:12.459Z,94056.45
2017-12-28T07:22:40.357Z,94069.23
2017-12-28T07:25:08.918Z,94086.67
2017-12-28T07:27:36.558Z,94077.26
2017-12-28T07:30:07.279Z,94083.59
2017-12-28T07:32:36.648Z,94080.51
2017-12-28T07:35:06.200Z,94081.50
2017-12-28T07:37:34.992Z,94112.48
2017-12-28T07:40:03.220Z,94112.98
2017-12-28T07:47:35.612Z,94102.41
2017-12-28T07:50:03.783Z,94084.67
2017-12-28T07:52:31.585Z,94083.15
2017-12-28T07:55:02.618Z,94085.52
2017-12-28T07:57:31.573Z,94071.94
2017-12-28T08:00:03.082Z,94071.06
2017-12-28T08:02:32.783Z,94048.78
2017-12-28T08:07:34.772Z,94060.62
2017-12-28T08:10:06.678Z,94074.99
2017-12-28T08:12:35.588Z,94068.02
2017-12-28T08:15:05.178Z,94069.45
2017-12-28T08:17:32.965Z,94063.53
2017-12-28T08:20:00.624Z,94049.83
2017-12-28T08:22:28.575Z,94032.44
2017-12-28T08:28:29.030Z,94030.03
2017-12-28T08:30:57.357Z,94042.08
2017-12-28T08:33:25.292Z,94040.94
2017-12-28T08:35:53.332Z,94073.80
2017-12-28T08:38:21.855Z,94053.25
2017-12-28T08:40:49.760Z,94065.17
2017-12-28T08:43:19.109Z,94038.99
2017-12-28T08:45:46.803Z,94058.55
2017-12-28T08:48:14.535Z,94041.75
2017-12-28T08:50:42.286Z,94029.09
2017-12-28T08:53:10.066Z,94070.05
2017-12-28T08:55:50.679Z,94000.72
2017-12-28T08:58:18.469Z,94051.05
2017-12-28T09:00:46.455Z,94025.73
2017-12-28T09:03:14.153Z,94029.75
2017-12-28T09:05:42.558Z,94024.84
2017-12-28T09:08:10.262Z,94038.02
2017-12-28T09:10:39.079Z,94015.05
2017-12-28T09:13:07.419Z,94027.91
2017-12-28T09:15:43.587Z,94014.59
2017-12-28T09:21:50.755Z,94007.42
2017-12-28T09:27:37.285Z,93990.08
2017-12-28T09:30:12.565Z,94014.38
2017-12-28T09:35:18.998Z,93958.39
2017-12-28T09:41:16.323Z,93956.30
2017-12-28T09:43:46.531Z,93996.19
2017-12-28T09:46:34.679Z,93980.73
2017-12-28T09:49:06.775Z,93976.75
2017-12-28T09:51:35.219Z,93987.25
2017-12-28T09:54:03.131Z,93942.67
2017-12-28T09:56:31.098Z,93930.26
2017-12-28T09:59:00.437Z,93917.58
2017-12-28T10:01:30.161Z,93938.59
2017-12-28T10:04:02.035Z,93913.23
2017-12-28T10:10:07.110Z,93899.89
2017-12-28T10:12:41.974Z,93907.91
2017-12-28T10:15:30.375Z,93880.66
2017-12-28T10:18:03.598Z,93851.80
2017-12-28T10:27:24.633Z,93858.83
2017-12-28T10:29:52.310Z,93870.22
2017-12-28T10:32:22.019Z,93856.66
2017-12-28T10:34:50.488Z,93849.50
2017-12-28T10:37:18.395Z,93850.11
2017-12-28T10:39:46.440Z,93834.56
2017-12-28T10:42:22.954Z,93838.90
2017-12-28T10:44:51.637Z,93818.93
2017-12-28T10:47:20.914Z,93834.62
2017-12-28T10:49:50.652Z,93846.23
2017-12-28T10:52:18.636Z,93835.45
2017-12-28T10:54:46.445Z,93849.33
2017-12-28T10:59:47.696Z,93822.70
2017-12-28T11:02:16.793Z,93818.38
2017-12-28T11:04:46.806Z,93798.56
2017-12-28T11:07:14.518Z,93792.73
2017-12-28T11:09:44.749Z,93802.24
2017-12-28T11:12:13.656Z,93818.30
2017-12-28T11:14:43.538Z,93780.20
2017-12-28T11:17:14.795Z,93793.27
2017-12-28T11:19:44.413Z,93798.41
2017-12-28T11:22:15.443Z,93798.75
2017-12-28T11:24:43.721Z,93784.62
2017-12-28T11:27:14.472Z,93776.91
2017-12-28T11:29:44.882Z,93778.64
2017-12-28T11:32:13.609Z,93772.84
2017-12-28T11:34:42.342Z,93767.62
2017-12-28T11:43:20.502Z,93759.08
2017-12-28T11:45:50.910Z,93766.45
2017-12-28T11:48:21.445Z,93766.28
2017-12-28T11:50:49.574Z,93765.87
2017-12-28T11:53:24.785Z,93766.27
2017-12-28T12:03:24.504Z,93772.27
2017-12-28T12:05:53.424Z,93773.80
2017-12-28T12:08:26.836Z,93769.92
2017-12-28T12:10:58.795Z,93775.72
2017-12-28T12:13:28.229Z,93775.31
2017-12-28T12:16:01.707Z,93776.30
2017-12-28T12:18:33.375Z,93784.81
2017-12-28T12:21:11.084Z,93792.38
2017-12-28T12:26:42.348Z,93799.94
2017-12-28T14:32:00.594Z,93811.28
2017-12-28T14:34:29.730Z,93828.68
2017-12-28T14:36:57.423Z,93801.94
2017-12-28T14:39:26.246Z,93810.58
2017-12-28T14:41:56.147Z,93810.58
2017-12-28T14:44:24.971Z,93836.48
2017-12-28T14:46:53.766Z,93814.91
2017-12-28T14:49:21.520Z,93803.09
2017-12-28T14:51:49.375Z,93802.92
2017-12-28T14:54:17.182Z,93848.13
2017-12-28T14:56:45.222Z,93827.68
2017-12-28T14:59:13.126Z,93815.95
2017-12-28T15:01:41.370Z,93803.08
2017-12-28T15:04:09.154Z,93825.11
2017-12-28T15:06:36.989Z,93828.27
2017-12-28T15:09:14.463Z,93786.88
2017-12-28T15:11:42.740Z,93805.84
2017-12-28T15:14:12.257Z,93810.36
2017-12-28T15:16:45.154Z,93839.44
2017-12-28T15:38:43.063Z,93833.77
2017-12-28T15:41:12.619Z,93827.68
2017-12-28T15:44:05.827Z,93841.41
2017-12-28T15:46:36.170Z,93841.34
2017-12-28T15:49:04.418Z,93840.63
2017-12-28T15:51:39.056Z,93840.19
2017-12-28T15:57:40.955Z,93848.05
2017-12-28T16:00:11.574Z,93850.93
2017-12-28T16:02:40.947Z,93853.48
2017-12-28T16:05:12.382Z,93853.33
2017-12-28T16:07:41.134Z,93850.53
2017-12-28T16:10:10.370Z,93838.25
2017-12-28T16:12:38.408Z,93844.52
2017-12-28T16:15:06.703Z,93855.54
2017-12-28T16:17:47.167Z,93858.33
2017-12-28T16:20:25.739Z,93850.87
2017-12-28T16:22:55.071Z,93846.87
2017-12-28T16:25:24.978Z,93850.61
2017-12-28T16:27:54.460Z,93862.80
2017-12-28T16:30:23.334Z,93825.02
2017-12-28T16:32:53.610Z,93825.25
2017-12-28T16:35:27.675Z,93838.23
2017-12-28T16:40:39.028Z,93829.00
2017-12-28T16:43:08.584Z,93823.12
2017-12-28T16:45:39.087Z,93850.92
2017-12-28T16:48:16.607Z,93840.56
2017-12-28T16:50:51.093Z,93869.23
2017-12-28T16:53:21.734Z,93826.96
2017-12-28T16:55:50.109Z,93860.55
2017-12-28T16:58:17.942Z,93859.63
2017-12-28T17:00:46.963Z,93856.34
2017-12-28T17:03:16.106Z,93850.09
2017-12-28T17:05:46.789Z,93854.00
2017-12-28T17:08:16.582Z,93863.86
2017-12-28T17:13:28.964Z,93872.91
2017-12-28T17:15:59.028Z,93879.69
2017-12-28T17:18:41.254Z,93892.41
2017-12-28T17:21:10.548Z,93892.00
2017-12-28T17:23:41.765Z,93873.83
2017-12-28T17:26:10.304Z,93870.59
2017-12-28T17:28:40.001Z,93882.34
2017-12-28T17:31:15.697Z,93881.98
2017-12-28T17:37:45.432Z,93873.91
2017-12-28T17:40:21.492Z,93875.28
2017-12-28T17:42:52.767Z,93876.00
2017-12-28T17:48:07.585Z,93894.78
2017-12-28T17:53:09.274Z,93904.81
2017-12-28T17:55:51.122Z,93904.09
2017-12-28T17:58:21.077Z,93899.14
2017-12-28T18:00:54.139Z,93906.67
2017-12-28T18:03:31.238Z,93907.19
2017-12-28T18:06:05.666Z,93913.02
2017-12-28T18:13:58.621Z,93911.37
2017-12-28T18:16:33.315Z,93921.88
2017-12-28T18:19:04.944Z,93918.53
2017-12-28T18:34:45.724Z,93917.95
2017-12-28T18:39:55.113Z,93917.94
2017-12-28T18:43:01.069Z,93911.55
2017-12-28T18:45:32.107Z,93908.68
2017-12-28T18:53:29.409Z,93924.66
2017-12-28T18:55:57.965Z,93935.56
2017-12-28T18:58:33.577Z,93964.26
2017-12-28T19:01:05.592Z,93961.66
2017-12-28T19:03:33.510Z,93951.06
2017-12-28T19:06:03.402Z,93924.24
2017-12-28T19:08:34.632Z,93922.48
2017-12-28T19:11:09.674Z,93919.11
2017-12-28T19:16:20.759Z,93907.63
2017-12-28T19:18:51.180Z,93900.51
2017-12-28T19:23:51.785Z,93920.16
2017-12-28T19:26:25.246Z,93913.83
2017-12-28T19:28:55.966Z,93914.66
2017-12-28T19:31:25.744Z,93917.80
2017-12-28T19:33:56.810Z,93908.83
2017-12-28T23:12:38.836Z,93929.25
2017-12-28T23:15:20.457Z,93952.34
2017-12-28T23:17:48.102Z,93962.50
2017-12-28T23:20:15.789Z,93937.45
2017-12-28T23:22:44.334Z,93946.95
2017-12-28T23:25:12.075Z,93962.18
2017-12-28T23:27:40.987Z,93949.80
2017-12-28T23:30:10.358Z,93955.82
2017-12-28T23:32:38.241Z,93966.25
2017-12-28T23:35:05.860Z,93965.14
2017-12-28T23:37:33.472Z,93968.52
2017-12-28T23:40:01.135Z,93964.08
2017-12-28T23:42:29.733Z,93957.88
2017-12-28T23:44:57.378Z,93983.41
2017-12-28T23:47:25.690Z,93991.22
2017-12-28T23:49:53.393Z,93996.17
2017-12-28T23:52:28.698Z,93988.53
2017-12-28T23:54:57.986Z,94004.98
2017-12-28T23:57:27.311Z,93979.83
2017-12-28T23:59:55.721Z,94012.86
